createdAt,value
2022-11-25T00:00:03.733Z,3.44
2022-11-25T00:00:53.466Z,3.41
2022-11-25T00:01:43.471Z,3.37
2022-11-25T00:02:33.477Z,3.35
2022-11-25T00:03:23.539Z,3.34
2022-11-25T00:04:13.401Z,3.35
2022-11-25T00:05:03.490Z,3.33
2022-11-25T00:05:53.403Z,3.33
2022-11-25T00:06:43.393Z,3.35
2022-11-25T00:07:33.412Z,3.35
2022-11-25T00:08:23.380Z,3.35
2022-11-25T00:09:13.345Z,3.35
2022-11-25T00:10:03.351Z,3.34
2022-11-25T00:10:53.465Z,3.34
2022-11-25T00:11:43.332Z,3.34
2022-11-25T00:12:33.308Z,3.35
2022-11-25T00:13:23.303Z,3.34
2022-11-25T00:14:13.340Z,3.34
2022-11-25T00:15:03.323Z,3.33
2022-11-25T00:15:53.308Z,3.31
2022-11-25T00:16:48.089Z,3.28
2022-11-25T00:17:34.278Z,3.28
2022-11-25T00:18:23.295Z,3.31
2022-11-25T00:19:13.241Z,3.33
2022-11-25T00:20:03.246Z,3.33
2022-11-25T00:20:53.499Z,3.34
2022-11-25T00:21:43.231Z,3.33
2022-11-25T00:22:33.217Z,3.31
2022-11-25T00:23:23.231Z,3.31
2022-11-25T00:24:13.184Z,3.25
2022-11-25T00:25:03.188Z,3.25
2022-11-25T00:25:53.181Z,3.20
2022-11-25T00:26:43.197Z,3.17
2022-11-25T00:27:33.167Z,3.17
2022-11-25T00:28:23.148Z,3.13
2022-11-25T00:29:13.135Z,3.12
2022-11-25T00:30:03.128Z,3.12
2022-11-25T00:30:53.106Z,3.07
2022-11-25T00:31:43.197Z,3.02
2022-11-25T00:32:33.096Z,3.01
2022-11-25T00:33:23.083Z,2.99
2022-11-25T00:34:13.086Z,2.98
2022-11-25T00:35:03.072Z,2.97
2022-11-25T00:35:53.057Z,2.97
2022-11-25T00:36:43.096Z,2.92
2022-11-25T00:37:33.059Z,2.87
2022-11-25T00:38:23.035Z,2.89
2022-11-25T00:39:13.019Z,2.86
2022-11-25T00:40:03.039Z,2.89
2022-11-25T00:40:52.998Z,2.87
2022-11-25T00:41:42.984Z,2.86
2022-11-25T00:42:33.054Z,2.89
2022-11-25T00:43:23.006Z,2.90
2022-11-25T00:44:12.959Z,2.89
2022-11-25T00:45:02.973Z,2.89
2022-11-25T00:45:53.070Z,2.87
2022-11-25T00:46:42.935Z,2.89
2022-11-25T00:47:32.944Z,2.89
2022-11-25T00:48:22.972Z,2.89
2022-11-25T00:49:12.913Z,2.87
2022-11-25T00:50:02.901Z,2.87
2022-11-25T00:50:52.893Z,2.86
2022-11-25T00:51:42.896Z,2.87
2022-11-25T00:52:32.893Z,2.86
2022-11-25T00:53:22.882Z,2.89
2022-11-25T00:54:12.889Z,2.90
2022-11-25T00:55:02.852Z,2.92
2022-11-25T00:55:52.862Z,2.92
2022-11-25T00:56:42.831Z,2.92
2022-11-25T00:57:32.816Z,2.90
2022-11-25T00:58:22.821Z,2.87
2022-11-25T00:59:12.808Z,2.87
2022-11-25T01:00:03.064Z,2.86
2022-11-25T01:00:52.791Z,2.86
2022-11-25T01:01:42.845Z,2.86
2022-11-25T01:02:32.849Z,2.83
2022-11-25T01:03:22.772Z,2.84
2022-11-25T01:04:12.760Z,2.81
2022-11-25T01:05:02.741Z,2.81
2022-11-25T01:05:52.769Z,2.79
2022-11-25T01:06:42.730Z,2.80
2022-11-25T01:07:32.902Z,2.79
2022-11-25T01:08:22.718Z,2.77
2022-11-25T01:09:12.689Z,2.77
2022-11-25T01:10:02.679Z,2.80
2022-11-25T01:10:52.709Z,2.83
2022-11-25T01:11:42.704Z,2.84
2022-11-25T01:12:32.660Z,2.86
2022-11-25T01:13:22.654Z,2.87
2022-11-25T01:14:12.653Z,2.90
2022-11-25T01:15:02.645Z,2.90
2022-11-25T01:15:52.618Z,2.94
2022-11-25T01:16:42.673Z,2.95
2022-11-25T01:17:32.898Z,2.97
2022-11-25T01:18:22.589Z,2.97
2022-11-25T01:19:12.569Z,2.98
2022-11-25T01:20:02.603Z,2.95
2022-11-25T01:20:52.578Z,2.92
2022-11-25T01:21:42.547Z,2.89
2022-11-25T01:22:32.538Z,2.89
2022-11-25T01:23:22.587Z,2.90
2022-11-25T01:24:12.536Z,2.92
2022-11-25T01:25:02.518Z,2.92
2022-11-25T01:25:52.509Z,2.86
2022-11-25T01:26:42.516Z,2.84
2022-11-25T01:27:32.489Z,2.81
2022-11-25T01:28:22.492Z,2.81
2022-11-25T01:29:12.496Z,2.80
2022-11-25T01:30:02.495Z,2.79
2022-11-25T01:30:52.442Z,2.80
2022-11-25T01:31:42.596Z,2.81
2022-11-25T01:32:32.441Z,2.86
2022-11-25T01:33:22.427Z,2.86
2022-11-25T01:34:12.411Z,2.83
2022-11-25T01:35:02.413Z,2.84
2022-11-25T01:35:52.395Z,2.84
2022-11-25T01:36:42.395Z,2.84
2022-11-25T01:37:32.410Z,2.84
2022-11-25T01:38:22.374Z,2.84
2022-11-25T01:39:12.353Z,2.87
2022-11-25T01:40:02.345Z,2.90
2022-11-25T01:40:52.363Z,2.90
2022-11-25T01:41:42.346Z,2.90
2022-11-25T01:42:32.312Z,2.90
2022-11-25T01:43:22.307Z,2.89
2022-11-25T01:44:12.308Z,2.84
2022-11-25T01:45:02.311Z,2.80
2022-11-25T01:45:52.313Z,2.80
2022-11-25T01:46:42.316Z,2.79
2022-11-25T01:47:32.265Z,2.79
2022-11-25T01:48:22.253Z,2.76
2022-11-25T01:49:12.241Z,2.76
2022-11-25T01:50:02.279Z,2.73
2022-11-25T01:50:52.226Z,2.66
2022-11-25T01:51:42.221Z,2.65
2022-11-25T01:52:32.244Z,2.65
2022-11-25T01:53:22.205Z,2.63
2022-11-25T01:54:12.194Z,2.62
2022-11-25T01:55:02.183Z,2.61
2022-11-25T01:55:52.180Z,2.61
2022-11-25T01:56:42.178Z,2.58
2022-11-25T01:57:32.159Z,2.50
2022-11-25T01:58:22.189Z,2.45
2022-11-25T01:59:12.131Z,2.44
2022-11-25T02:00:02.146Z,2.45
2022-11-25T02:00:52.167Z,2.45
2022-11-25T02:01:42.151Z,2.45
2022-11-25T02:02:32.133Z,2.48
2022-11-25T02:03:22.117Z,2.47
2022-11-25T02:04:12.078Z,2.48
2022-11-25T02:05:02.203Z,2.47
2022-11-25T02:05:52.062Z,2.47
2022-11-25T02:06:42.067Z,2.45
2022-11-25T02:07:32.109Z,2.41
2022-11-25T02:08:22.272Z,2.43
2022-11-25T02:09:12.039Z,2.40
2022-11-25T02:10:02.007Z,2.41
2022-11-25T02:10:52.019Z,2.40
2022-11-25T02:11:42.011Z,2.41
2022-11-25T02:12:32.030Z,2.41
2022-11-25T02:13:21.976Z,2.38
2022-11-25T02:14:11.996Z,2.37
2022-11-25T02:15:01.987Z,2.40
2022-11-25T02:15:51.955Z,2.40
2022-11-25T02:16:42.023Z,2.40
2022-11-25T02:17:31.925Z,2.40
2022-11-25T02:18:21.941Z,2.41
2022-11-25T02:19:11.924Z,2.40
2022-11-25T02:20:01.987Z,2.38
2022-11-25T02:20:51.904Z,2.36
2022-11-25T02:21:41.887Z,2.33
2022-11-25T02:22:31.906Z,2.33
2022-11-25T02:23:21.898Z,2.32
2022-11-25T02:24:11.864Z,2.33
2022-11-25T02:25:01.855Z,2.36
2022-11-25T02:25:51.845Z,2.33
2022-11-25T02:26:41.851Z,2.32
2022-11-25T02:27:31.907Z,2.33
2022-11-25T02:28:21.806Z,2.36
2022-11-25T02:29:11.813Z,2.33
2022-11-25T02:30:01.818Z,2.36
2022-11-25T02:30:51.785Z,2.32
2022-11-25T02:31:41.844Z,2.29
2022-11-25T02:32:31.825Z,2.27
2022-11-25T02:33:21.765Z,2.27
2022-11-25T02:34:11.747Z,2.29
2022-11-25T02:35:01.969Z,2.29
2022-11-25T02:35:51.719Z,2.30
2022-11-25T02:36:41.715Z,2.30
2022-11-25T02:37:31.713Z,2.33
2022-11-25T02:38:21.721Z,2.32
2022-11-25T02:39:11.687Z,2.27
2022-11-25T02:40:01.686Z,2.27
2022-11-25T02:40:51.704Z,2.26
2022-11-25T02:41:41.659Z,2.25
2022-11-25T02:42:31.706Z,2.25
2022-11-25T02:43:21.650Z,2.25
2022-11-25T02:44:11.654Z,2.25
2022-11-25T02:45:01.622Z,2.25
2022-11-25T02:45:51.645Z,2.23
2022-11-25T02:46:41.732Z,2.26
2022-11-25T02:47:31.647Z,2.23
2022-11-25T02:48:34.493Z,2.22
2022-11-25T02:49:12.592Z,2.22
2022-11-25T02:50:01.566Z,2.22
2022-11-25T02:50:51.550Z,2.23
2022-11-25T02:51:41.561Z,2.23
2022-11-25T02:52:31.615Z,2.23
2022-11-25T02:53:21.550Z,2.23
2022-11-25T02:54:11.550Z,2.23
2022-11-25T02:55:01.522Z,2.25
2022-11-25T02:55:51.573Z,2.23
2022-11-25T02:56:41.503Z,2.22
2022-11-25T02:57:31.727Z,2.20
2022-11-25T02:58:21.469Z,2.23
2022-11-25T02:59:11.468Z,2.25
2022-11-25T03:00:01.494Z,2.25
2022-11-25T03:00:51.513Z,2.25
2022-11-25T03:01:41.480Z,2.25
2022-11-25T03:02:31.554Z,2.22
2022-11-25T03:03:21.459Z,2.23
2022-11-25T03:04:11.431Z,2.23
2022-11-25T03:05:01.416Z,2.22
2022-11-25T03:05:51.387Z,2.22
2022-11-25T03:06:41.389Z,2.20
2022-11-25T03:07:31.483Z,2.15
2022-11-25T03:08:21.390Z,2.14
2022-11-25T03:09:11.593Z,2.15
2022-11-25T03:10:01.386Z,2.15
2022-11-25T03:10:51.347Z,2.18
2022-11-25T03:11:41.339Z,2.14
2022-11-25T03:12:31.392Z,2.14
2022-11-25T03:13:21.324Z,2.15
2022-11-25T03:14:11.334Z,2.18
2022-11-25T03:15:01.308Z,2.19
2022-11-25T03:15:51.275Z,2.20
2022-11-25T03:16:41.366Z,2.22
2022-11-25T03:17:31.681Z,2.23
2022-11-25T03:18:21.266Z,2.23
2022-11-25T03:19:11.265Z,2.25
2022-11-25T03:20:01.258Z,2.25
2022-11-25T03:20:51.245Z,2.25
2022-11-25T03:21:41.244Z,2.23
2022-11-25T03:22:31.242Z,2.23
2022-11-25T03:23:21.271Z,2.25
2022-11-25T03:24:11.191Z,2.25
2022-11-25T03:25:01.186Z,2.22
2022-11-25T03:25:51.184Z,2.22
2022-11-25T03:26:41.160Z,2.22
2022-11-25T03:27:31.279Z,2.23
2022-11-25T03:28:21.141Z,2.23
2022-11-25T03:29:11.354Z,2.20
2022-11-25T03:30:01.135Z,2.18
2022-11-25T03:30:51.193Z,2.19
2022-11-25T03:31:41.222Z,2.18
2022-11-25T03:32:31.102Z,2.20
2022-11-25T03:33:21.093Z,2.22
2022-11-25T03:34:11.080Z,2.25
2022-11-25T03:35:01.290Z,2.25
2022-11-25T03:35:51.070Z,2.26
2022-11-25T03:36:41.131Z,2.29
2022-11-25T03:37:31.042Z,2.27
2022-11-25T03:38:21.082Z,2.29
2022-11-25T03:39:11.054Z,2.26
2022-11-25T03:40:01.000Z,2.27
2022-11-25T03:40:51.022Z,2.29
2022-11-25T03:41:40.991Z,2.29
2022-11-25T03:42:30.994Z,2.29
2022-11-25T03:43:20.979Z,2.29
2022-11-25T03:44:11.199Z,2.29
2022-11-25T03:45:00.955Z,2.30
2022-11-25T03:45:51.048Z,2.29
2022-11-25T03:46:40.960Z,2.29
2022-11-25T03:47:30.946Z,2.29
2022-11-25T03:48:20.920Z,2.30
2022-11-25T03:49:10.908Z,2.29
2022-11-25T03:50:00.951Z,2.30
2022-11-25T03:50:50.899Z,2.32
2022-11-25T03:51:40.900Z,2.30
2022-11-25T03:52:30.871Z,2.30
2022-11-25T03:53:20.859Z,2.32
2022-11-25T03:54:10.858Z,2.29
2022-11-25T03:55:00.857Z,2.27
2022-11-25T03:55:50.908Z,2.30
2022-11-25T03:56:40.848Z,2.29
2022-11-25T03:57:30.837Z,2.30
2022-11-25T03:58:20.821Z,2.30
2022-11-25T03:59:10.825Z,2.30
2022-11-25T04:00:00.789Z,2.29
2022-11-25T04:00:50.924Z,2.29
2022-11-25T04:01:44.217Z,2.30
2022-11-25T04:02:30.916Z,2.32
2022-11-25T04:03:20.776Z,2.30
2022-11-25T04:04:10.776Z,2.29
2022-11-25T04:05:00.749Z,2.30
2022-11-25T04:05:50.748Z,2.23
2022-11-25T04:06:40.713Z,2.20
2022-11-25T04:07:30.976Z,2.18
2022-11-25T04:08:20.694Z,2.14
2022-11-25T04:09:10.717Z,2.09
2022-11-25T04:10:00.676Z,2.07
2022-11-25T04:10:50.676Z,2.05
2022-11-25T04:11:40.662Z,2.04
2022-11-25T04:12:30.654Z,2.01
2022-11-25T04:13:20.675Z,1.95
2022-11-25T04:14:10.656Z,1.92
2022-11-25T04:15:00.646Z,1.90
2022-11-25T04:15:50.657Z,1.86
2022-11-25T04:16:40.672Z,1.85
2022-11-25T04:17:30.614Z,1.83
2022-11-25T04:18:20.599Z,1.88
2022-11-25T04:19:10.634Z,1.86
2022-11-25T04:20:00.629Z,1.88
2022-11-25T04:20:50.561Z,1.86
2022-11-25T04:21:40.562Z,1.88
2022-11-25T04:22:30.553Z,1.89
2022-11-25T04:23:20.540Z,1.89
2022-11-25T04:24:10.541Z,1.88
2022-11-25T04:25:00.562Z,1.89
2022-11-25T04:25:50.524Z,1.89
2022-11-25T04:26:40.503Z,1.93
2022-11-25T04:27:30.533Z,1.92
2022-11-25T04:28:20.523Z,1.93
2022-11-25T04:29:10.479Z,1.95
2022-11-25T04:30:00.479Z,1.95
2022-11-25T04:30:50.528Z,1.98
2022-11-25T04:31:40.448Z,2.00
2022-11-25T04:32:30.433Z,1.98
2022-11-25T04:33:20.443Z,2.00
2022-11-25T04:34:10.429Z,2.01
2022-11-25T04:35:00.434Z,2.01
2022-11-25T04:35:50.407Z,2.00
2022-11-25T04:36:40.408Z,2.01
2022-11-25T04:37:30.376Z,2.01
2022-11-25T04:38:20.396Z,1.95
2022-11-25T04:39:10.379Z,1.93
2022-11-25T04:40:00.361Z,1.93
2022-11-25T04:40:50.379Z,1.90
2022-11-25T04:41:40.336Z,1.89
2022-11-25T04:42:30.548Z,1.89
2022-11-25T04:43:20.307Z,1.95
2022-11-25T04:44:10.297Z,1.98
2022-11-25T04:45:22.935Z,2.00
2022-11-25T04:46:13.056Z,2.01
2022-11-25T04:46:41.342Z,2.01
2022-11-25T04:47:30.278Z,1.98
2022-11-25T04:48:20.476Z,1.95
2022-11-25T04:49:10.249Z,1.98
2022-11-25T04:50:00.264Z,1.98
2022-11-25T04:50:50.227Z,2.00
2022-11-25T04:51:40.218Z,2.00
2022-11-25T04:52:30.234Z,1.98
2022-11-25T04:53:20.205Z,1.95
2022-11-25T04:54:14.749Z,1.93
2022-11-25T04:55:01.203Z,1.89
2022-11-25T04:55:50.178Z,1.92
2022-11-25T04:56:40.158Z,1.90
2022-11-25T04:57:30.166Z,1.92
2022-11-25T04:58:20.146Z,1.90
2022-11-25T04:59:10.141Z,1.88
2022-11-25T05:00:00.157Z,1.86
2022-11-25T05:00:50.137Z,1.85
2022-11-25T05:01:40.217Z,1.83
2022-11-25T05:02:30.237Z,1.85
2022-11-25T05:03:20.093Z,1.82
2022-11-25T05:04:10.088Z,1.82
2022-11-25T05:05:00.085Z,1.82
2022-11-25T05:05:50.095Z,1.82
2022-11-25T05:06:40.086Z,1.81
2022-11-25T05:07:30.117Z,1.79
2022-11-25T05:08:20.041Z,1.77
2022-11-25T05:09:10.050Z,1.79
2022-11-25T05:10:00.038Z,1.81
2022-11-25T05:10:50.015Z,1.81
2022-11-25T05:11:40.025Z,1.81
2022-11-25T05:12:29.998Z,1.82
2022-11-25T05:13:20.002Z,1.81
2022-11-25T05:14:09.991Z,1.75
2022-11-25T05:15:00.191Z,1.75
2022-11-25T05:15:49.968Z,1.77
2022-11-25T05:16:39.999Z,1.79
2022-11-25T05:17:29.979Z,1.82
2022-11-25T05:18:19.929Z,1.82
2022-11-25T05:19:09.911Z,1.83
2022-11-25T05:19:59.907Z,1.82
2022-11-25T05:20:49.920Z,1.81
2022-11-25T05:21:39.890Z,1.81
2022-11-25T05:22:29.911Z,1.81
2022-11-25T05:23:19.897Z,1.82
2022-11-25T05:24:09.868Z,1.81
2022-11-25T05:24:59.866Z,1.79
2022-11-25T05:25:49.859Z,1.77
2022-11-25T05:26:39.862Z,1.77
2022-11-25T05:27:29.866Z,1.75
2022-11-25T05:28:19.827Z,1.77
2022-11-25T05:29:09.798Z,1.74
2022-11-25T05:30:00.017Z,1.74
2022-11-25T05:30:49.887Z,1.74
2022-11-25T05:31:39.769Z,1.72
2022-11-25T05:32:29.799Z,1.74
2022-11-25T05:33:19.764Z,1.74
2022-11-25T05:34:09.756Z,1.71
2022-11-25T05:34:59.755Z,1.72
2022-11-25T05:35:49.755Z,1.70
2022-11-25T05:36:39.739Z,1.68
2022-11-25T05:37:29.753Z,1.64
2022-11-25T05:38:19.722Z,1.64
2022-11-25T05:39:09.705Z,1.65
2022-11-25T05:39:59.694Z,1.64
2022-11-25T05:40:49.674Z,1.65
2022-11-25T05:41:39.685Z,1.67
2022-11-25T05:42:29.725Z,1.68
2022-11-25T05:43:19.645Z,1.70
2022-11-25T05:44:09.635Z,1.68
2022-11-25T05:44:59.634Z,1.70
2022-11-25T05:45:49.669Z,1.70
2022-11-25T05:46:39.621Z,1.71
2022-11-25T05:47:29.649Z,1.68
2022-11-25T05:48:19.584Z,1.70
2022-11-25T05:49:09.583Z,1.71
2022-11-25T05:49:59.593Z,1.71
2022-11-25T05:50:49.561Z,1.70
2022-11-25T05:51:39.564Z,1.70
2022-11-25T05:52:29.543Z,1.70
2022-11-25T05:53:19.784Z,1.68
2022-11-25T05:54:09.532Z,1.68
2022-11-25T05:54:59.568Z,1.67
2022-11-25T05:55:49.514Z,1.68
2022-11-25T05:56:39.511Z,1.68
2022-11-25T05:57:29.523Z,1.68
2022-11-25T05:58:19.481Z,1.67
2022-11-25T05:59:09.512Z,1.67
2022-11-25T05:59:59.463Z,1.65
2022-11-25T06:00:49.460Z,1.67
2022-11-25T06:01:39.441Z,1.68
2022-11-25T06:02:29.602Z,1.67
2022-11-25T06:03:19.518Z,1.67
2022-11-25T06:04:09.433Z,1.68
2022-11-25T06:04:59.430Z,1.67
2022-11-25T06:05:49.441Z,1.67
2022-11-25T06:06:39.397Z,1.67
2022-11-25T06:07:29.470Z,1.67
2022-11-25T06:08:19.380Z,1.67
2022-11-25T06:09:09.379Z,1.67
2022-11-25T06:10:03.064Z,1.67
2022-11-25T06:10:49.411Z,1.67
2022-11-25T06:11:39.348Z,1.68
2022-11-25T06:12:29.329Z,1.68
2022-11-25T06:13:19.330Z,1.71
2022-11-25T06:14:09.329Z,1.71
2022-11-25T06:14:59.320Z,1.72
2022-11-25T06:15:49.382Z,1.74
2022-11-25T06:16:39.290Z,1.75
2022-11-25T06:17:29.277Z,1.74
2022-11-25T06:18:19.260Z,1.74
2022-11-25T06:19:09.277Z,1.70
2022-11-25T06:19:59.250Z,1.68
2022-11-25T06:20:49.259Z,1.67
2022-11-25T06:21:39.237Z,1.68
2022-11-25T06:22:29.218Z,1.68
2022-11-25T06:23:19.205Z,1.71
2022-11-25T06:24:09.213Z,1.74
2022-11-25T06:25:03.642Z,1.77
2022-11-25T06:25:50.195Z,1.77
2022-11-25T06:26:39.185Z,1.79
2022-11-25T06:27:43.987Z,1.77
2022-11-25T06:28:20.158Z,1.75
2022-11-25T06:29:09.144Z,1.75
2022-11-25T06:29:59.125Z,1.74
2022-11-25T06:30:49.189Z,1.71
2022-11-25T06:31:39.225Z,1.68
2022-11-25T06:32:29.125Z,1.65
2022-11-25T06:33:19.084Z,1.67
2022-11-25T06:34:09.093Z,1.67
2022-11-25T06:34:59.097Z,1.70
2022-11-25T06:35:49.074Z,1.68
2022-11-25T06:36:39.081Z,1.67
2022-11-25T06:37:29.094Z,1.64
2022-11-25T06:38:19.032Z,1.65
2022-11-25T06:39:09.022Z,1.65
2022-11-25T06:39:59.031Z,1.65
2022-11-25T06:40:49.014Z,1.65
2022-11-25T06:41:39.023Z,1.64
2022-11-25T06:42:28.992Z,1.64
2022-11-25T06:43:19.042Z,1.65
2022-11-25T06:44:08.980Z,1.65
2022-11-25T06:44:58.981Z,1.67
2022-11-25T06:45:48.978Z,1.65
2022-11-25T06:46:39.029Z,1.67
2022-11-25T06:47:28.937Z,1.67
2022-11-25T06:48:18.951Z,1.67
2022-11-25T06:49:09.022Z,1.67
2022-11-25T06:49:58.923Z,1.64
2022-11-25T06:50:48.899Z,1.67
2022-11-25T06:51:38.907Z,1.68
2022-11-25T06:52:28.880Z,1.67
2022-11-25T06:53:23.980Z,1.67
2022-11-25T06:54:10.109Z,1.68
2022-11-25T06:54:58.850Z,1.70
2022-11-25T06:55:48.859Z,1.71
2022-11-25T06:56:38.839Z,1.71
2022-11-25T06:57:28.832Z,1.74
2022-11-25T06:58:34.945Z,1.72
2022-11-25T06:59:09.801Z,1.71
2022-11-25T06:59:58.826Z,1.71
2022-11-25T07:00:48.798Z,1.72
2022-11-25T07:01:38.841Z,1.71
2022-11-25T07:02:28.775Z,1.75
2022-11-25T07:03:18.796Z,1.77
2022-11-25T07:04:08.805Z,1.79
2022-11-25T07:04:58.757Z,1.79
2022-11-25T07:05:48.745Z,1.81
2022-11-25T07:06:38.737Z,1.82
2022-11-25T07:07:28.749Z,1.83
2022-11-25T07:08:18.709Z,1.82
2022-11-25T07:09:08.707Z,1.82
2022-11-25T07:09:58.721Z,1.85
2022-11-25T07:10:48.676Z,1.85
2022-11-25T07:11:38.675Z,1.85
2022-11-25T07:12:28.665Z,1.85
2022-11-25T07:13:18.665Z,1.88
2022-11-25T07:14:08.642Z,1.89
2022-11-25T07:14:58.656Z,1.89
2022-11-25T07:15:48.895Z,1.86
2022-11-25T07:16:38.635Z,1.86
2022-11-25T07:17:28.604Z,1.85
2022-11-25T07:18:18.594Z,1.85
2022-11-25T07:19:08.626Z,1.82
2022-11-25T07:19:58.597Z,1.82
2022-11-25T07:20:48.572Z,1.83
2022-11-25T07:21:38.599Z,1.83
2022-11-25T07:22:28.542Z,1.86
2022-11-25T07:23:18.557Z,1.88
2022-11-25T07:24:08.551Z,1.88
2022-11-25T07:24:58.534Z,1.89
2022-11-25T07:25:48.513Z,1.90
2022-11-25T07:26:38.521Z,1.93
2022-11-25T07:27:28.731Z,1.95
2022-11-25T07:28:18.509Z,2.00
2022-11-25T07:29:23.419Z,2.02
2022-11-25T07:30:41.169Z,2.04
2022-11-25T07:31:39.463Z,2.09
2022-11-25T07:32:28.440Z,2.11
2022-11-25T07:33:18.549Z,2.14
2022-11-25T07:34:08.415Z,2.14
2022-11-25T07:34:58.420Z,2.18
2022-11-25T07:35:48.433Z,2.18
2022-11-25T07:36:38.399Z,2.18
2022-11-25T07:37:28.406Z,2.19
2022-11-25T07:38:18.389Z,2.20
2022-11-25T07:39:08.676Z,2.20
2022-11-25T07:39:58.391Z,2.25
2022-11-25T07:40:48.362Z,2.26
2022-11-25T07:41:38.339Z,2.29
2022-11-25T07:42:28.340Z,2.30
2022-11-25T07:43:18.350Z,2.33
2022-11-25T07:44:08.330Z,2.36
2022-11-25T07:44:58.331Z,2.36
2022-11-25T07:45:48.279Z,2.37
2022-11-25T07:46:38.431Z,2.41
2022-11-25T07:47:28.270Z,2.40
2022-11-25T07:48:18.298Z,2.41
2022-11-25T07:49:08.256Z,2.44
2022-11-25T07:49:58.246Z,2.47
2022-11-25T07:50:48.275Z,2.50
2022-11-25T07:51:38.233Z,2.50
2022-11-25T07:52:28.209Z,2.51
2022-11-25T07:53:18.214Z,2.55
2022-11-25T07:54:08.221Z,2.53
2022-11-25T07:54:58.216Z,2.56
2022-11-25T07:55:48.179Z,2.56
2022-11-25T07:56:38.259Z,2.55
2022-11-25T07:57:28.162Z,2.55
2022-11-25T07:58:18.159Z,2.58
2022-11-25T07:59:08.152Z,2.59
2022-11-25T07:59:58.148Z,2.62
2022-11-25T08:00:48.136Z,2.63
2022-11-25T08:01:38.147Z,2.62
2022-11-25T08:02:28.172Z,2.59
2022-11-25T08:03:18.141Z,2.55
2022-11-25T08:04:08.077Z,2.53
2022-11-25T08:04:58.101Z,2.51
2022-11-25T08:05:48.067Z,2.55
2022-11-25T08:06:38.111Z,2.58
2022-11-25T08:07:31.987Z,2.65
2022-11-25T08:08:19.092Z,2.66
2022-11-25T08:09:08.037Z,2.68
2022-11-25T08:09:58.046Z,2.73
2022-11-25T08:10:48.026Z,2.74
2022-11-25T08:11:38.018Z,2.76
2022-11-25T08:12:28.001Z,2.73
2022-11-25T08:13:17.994Z,2.71
2022-11-25T08:14:08.205Z,2.68
2022-11-25T08:14:57.989Z,2.69
2022-11-25T08:15:48.024Z,2.69
2022-11-25T08:16:37.964Z,2.69
2022-11-25T08:17:27.936Z,2.74
2022-11-25T08:18:17.941Z,2.79
2022-11-25T08:19:07.945Z,2.80
2022-11-25T08:19:57.933Z,2.84
2022-11-25T08:20:47.916Z,2.87
2022-11-25T08:21:37.893Z,2.90
2022-11-25T08:22:27.892Z,2.92
2022-11-25T08:23:17.889Z,2.95
2022-11-25T08:24:07.881Z,2.97
2022-11-25T08:24:57.860Z,2.99
2022-11-25T08:25:50.589Z,3.01
2022-11-25T08:26:37.850Z,3.01
2022-11-25T08:27:27.844Z,3.04
2022-11-25T08:28:17.831Z,3.04
2022-11-25T08:29:07.812Z,3.07
2022-11-25T08:29:57.836Z,3.07
2022-11-25T08:30:47.839Z,3.08
2022-11-25T08:31:38.013Z,3.07
2022-11-25T08:32:27.766Z,3.10
2022-11-25T08:33:17.780Z,3.12
2022-11-25T08:34:07.750Z,3.13
2022-11-25T08:34:57.764Z,3.15
2022-11-25T08:35:47.747Z,3.17
2022-11-25T08:36:37.720Z,3.17
2022-11-25T08:37:27.760Z,3.20
2022-11-25T08:38:17.726Z,3.22
2022-11-25T08:39:28.732Z,3.25
2022-11-25T08:39:58.865Z,3.25
2022-11-25T08:40:47.679Z,3.28
2022-11-25T08:41:37.679Z,3.31
2022-11-25T08:42:27.702Z,3.34
2022-11-25T08:43:17.692Z,3.34
2022-11-25T08:44:07.667Z,3.35
2022-11-25T08:44:57.664Z,3.37
2022-11-25T08:45:47.641Z,3.41
2022-11-25T08:46:37.667Z,3.42
2022-11-25T08:47:27.610Z,3.44
2022-11-25T08:48:17.838Z,3.45
2022-11-25T08:49:08.077Z,3.46
2022-11-25T08:49:57.626Z,3.49
2022-11-25T08:50:47.566Z,3.53
2022-11-25T08:51:37.589Z,3.53
2022-11-25T08:52:27.614Z,3.54
2022-11-25T08:53:17.562Z,3.56
2022-11-25T08:54:07.528Z,3.59
2022-11-25T08:54:57.778Z,3.59
2022-11-25T08:55:47.524Z,3.60
2022-11-25T08:56:37.515Z,3.62
2022-11-25T08:57:27.516Z,3.63
2022-11-25T08:58:17.487Z,3.63
2022-11-25T08:59:07.477Z,3.64
2022-11-25T08:59:57.478Z,3.63
2022-11-25T09:00:47.697Z,3.64
2022-11-25T09:01:37.502Z,3.68
2022-11-25T09:02:27.496Z,3.68
2022-11-25T09:03:17.516Z,3.70
2022-11-25T09:04:07.431Z,3.71
2022-11-25T09:04:57.435Z,3.74
2022-11-25T09:05:47.405Z,3.77
2022-11-25T09:06:37.460Z,3.80
2022-11-25T09:07:30.693Z,3.81
2022-11-25T09:08:17.402Z,3.82
2022-11-25T09:09:07.382Z,3.88
2022-11-25T09:09:57.374Z,3.89
2022-11-25T09:10:47.426Z,3.90
2022-11-25T09:11:37.443Z,3.90
2022-11-25T09:12:27.373Z,3.92
2022-11-25T09:13:17.341Z,3.93
2022-11-25T09:14:07.380Z,3.95
2022-11-25T09:14:57.325Z,3.96
2022-11-25T09:15:47.364Z,3.96
2022-11-25T09:16:37.376Z,3.98
2022-11-25T09:17:27.279Z,3.98
2022-11-25T09:18:17.314Z,3.98
2022-11-25T09:19:07.273Z,3.98
2022-11-25T09:19:57.281Z,3.93
2022-11-25T09:20:47.242Z,3.90
2022-11-25T09:21:37.244Z,3.89
2022-11-25T09:22:27.237Z,3.89
2022-11-25T09:23:17.212Z,3.92
2022-11-25T09:24:07.433Z,3.93
2022-11-25T09:24:57.204Z,4.10
2022-11-25T09:25:47.200Z,4.42
2022-11-25T09:26:37.177Z,4.56
2022-11-25T09:27:27.178Z,4.65
2022-11-25T09:28:17.150Z,4.64
2022-11-25T09:29:07.149Z,4.57
2022-11-25T09:29:57.418Z,4.43
2022-11-25T09:30:47.145Z,4.16
2022-11-25T09:31:37.196Z,3.98
2022-11-25T09:32:27.126Z,3.90
2022-11-25T09:33:17.129Z,3.86
2022-11-25T09:34:07.105Z,3.82
2022-11-25T09:34:57.159Z,3.81
2022-11-25T09:35:47.195Z,3.81
2022-11-25T09:36:37.078Z,3.82
2022-11-25T09:37:27.068Z,3.84
2022-11-25T09:38:17.075Z,3.81
2022-11-25T09:39:07.045Z,3.81
2022-11-25T09:39:57.035Z,3.84
2022-11-25T09:40:47.019Z,3.89
2022-11-25T09:41:37.086Z,3.92
2022-11-25T09:42:26.995Z,3.96
2022-11-25T09:43:17.069Z,3.98
2022-11-25T09:44:06.989Z,4.00
2022-11-25T09:44:56.976Z,4.00
2022-11-25T09:45:46.987Z,4.04
2022-11-25T09:46:36.970Z,4.02
2022-11-25T09:47:26.965Z,4.00
2022-11-25T09:48:16.935Z,4.02
2022-11-25T09:49:06.975Z,4.06
2022-11-25T09:49:56.926Z,4.04
2022-11-25T09:50:46.944Z,4.00
2022-11-25T09:51:36.914Z,3.99
2022-11-25T09:52:26.910Z,4.02
2022-11-25T09:53:16.896Z,4.04
2022-11-25T09:54:06.884Z,4.02
2022-11-25T09:54:56.952Z,4.02
2022-11-25T09:55:46.859Z,4.04
2022-11-25T09:56:36.854Z,4.08
2022-11-25T09:57:26.853Z,4.08
2022-11-25T09:58:16.823Z,4.10
2022-11-25T09:59:06.835Z,4.11
2022-11-25T09:59:56.807Z,4.16
2022-11-25T10:00:47.363Z,4.18
2022-11-25T10:01:36.802Z,4.20
2022-11-25T10:02:26.960Z,4.24
2022-11-25T10:03:16.814Z,4.25
2022-11-25T10:04:06.762Z,4.28
2022-11-25T10:04:56.742Z,4.32
2022-11-25T10:05:46.752Z,4.35
2022-11-25T10:06:36.858Z,4.38
2022-11-25T10:07:26.765Z,4.39
2022-11-25T10:08:16.741Z,4.42
2022-11-25T10:09:06.711Z,4.44
2022-11-25T10:09:56.718Z,4.46
2022-11-25T10:10:46.680Z,4.49
2022-11-25T10:11:36.689Z,4.49
2022-11-25T10:12:26.700Z,4.50
2022-11-25T10:13:16.661Z,4.51
2022-11-25T10:14:06.670Z,4.51
2022-11-25T10:14:56.651Z,4.54
2022-11-25T10:15:46.757Z,4.56
2022-11-25T10:16:36.722Z,4.57
2022-11-25T10:17:26.621Z,4.62
2022-11-25T10:18:16.831Z,4.62
2022-11-25T10:19:06.589Z,4.67
2022-11-25T10:19:56.597Z,4.68
2022-11-25T10:20:46.568Z,4.68
2022-11-25T10:21:36.558Z,4.74
2022-11-25T10:22:26.570Z,4.74
2022-11-25T10:23:16.568Z,4.75
2022-11-25T10:24:06.788Z,4.71
2022-11-25T10:24:56.525Z,4.72
2022-11-25T10:25:46.517Z,4.71
2022-11-25T10:26:36.517Z,4.77
2022-11-25T10:27:26.517Z,4.87
2022-11-25T10:28:16.486Z,4.91
2022-11-25T10:29:06.477Z,4.93
2022-11-25T10:29:56.527Z,4.94
2022-11-25T10:30:46.467Z,4.94
2022-11-25T10:31:36.577Z,4.94
2022-11-25T10:32:26.454Z,4.90
2022-11-25T10:33:16.424Z,4.93
2022-11-25T10:34:06.436Z,5.01
2022-11-25T10:34:56.429Z,5.11
2022-11-25T10:35:46.476Z,5.29
2022-11-25T10:36:36.386Z,5.40
2022-11-25T10:37:26.385Z,5.56
2022-11-25T10:38:19.179Z,5.65
2022-11-25T10:39:06.374Z,5.77
2022-11-25T10:39:56.410Z,5.73
2022-11-25T10:40:46.365Z,5.67
2022-11-25T10:41:36.365Z,5.77
2022-11-25T10:42:26.348Z,5.90
2022-11-25T10:43:16.332Z,5.90
2022-11-25T10:44:06.315Z,5.95
2022-11-25T10:44:56.297Z,5.96
2022-11-25T10:45:46.591Z,6.02
2022-11-25T10:47:11.161Z,6.06
2022-11-25T10:47:27.330Z,6.06
2022-11-25T10:48:16.295Z,6.14
2022-11-25T10:49:06.281Z,6.11
2022-11-25T10:49:56.241Z,6.08
2022-11-25T10:50:46.281Z,6.03
2022-11-25T10:51:36.330Z,6.01
2022-11-25T10:52:26.243Z,5.99
2022-11-25T10:53:16.209Z,5.99
2022-11-25T10:54:06.212Z,5.98
2022-11-25T10:54:56.191Z,5.99
2022-11-25T10:55:46.179Z,5.99
2022-11-25T10:56:36.166Z,5.99
2022-11-25T10:57:26.382Z,5.99
2022-11-25T10:58:16.163Z,5.99
2022-11-25T10:59:06.142Z,5.99
2022-11-25T10:59:56.143Z,5.95
2022-11-25T11:00:46.143Z,5.95
2022-11-25T11:01:36.148Z,5.95
2022-11-25T11:02:26.185Z,5.95
2022-11-25T11:03:16.281Z,5.93
2022-11-25T11:04:06.105Z,5.93
2022-11-25T11:04:56.078Z,5.96
2022-11-25T11:05:46.792Z,5.96